Yangon, Burma
Current Conditions -  °F | °C
As of 12:30 AM on Sunday 21 Dec 2014 (Local Time) from VYYY Reporting Station
Few Clouds Few Clouds  
Wind Chill: 70°   Ceiling: Unl
Heat Index: 70°   Visibility: 4mi
Dew Point: 68°   Wind: 3mph
Humidity: 94%   Direction: 290°WNW
Pressure: 29.91"   Gusts: NA
Location:  16.79°N, 96.15°E
Report Text: VYYY 201830Z 29003KT 6000 R21/2000N FEW250 21/20 Q1013 NOSIG
Loading
Personal Weather Stations






























Interactive Weather Map New forecast layout! Learn more

10-Day Weather Forecast

Advertisements
Track Severe Weather on mobile